Time;durP1;ratioP1;P1;durP2;ratioP2;P2;SDS_P1;SDS_P2;PMS_P1;PMS_P2;Temp;Humidity;BMP_temperature;BMP_pressure;BME280_temperature;BME280_humidity;BME280_pressure;Samples;Min_cycle;Max_cycle;Signal;HPM_P1;HPM_P2
2022/07/16 03:52:45;;;;;;;5.57;4.90;;;;;;;19.47;45.18;101389.47;674336;29;1597;-81
2022/07/16 03:53:08;;;;;;;5.65;4.90;;;;;;;19.47;45.00;101385.94;671004;29;1366;-81
2022/07/16 03:53:31;;;;;;;5.72;4.97;;;;;;;19.45;45.14;101384.19;668277;29;1573;-82
2022/07/16 03:53:52;;;;;;;6.07;4.88;;;;;;;19.44;45.28;101390.34;666829;29;1419;-80
2022/07/16 03:54:14;;;;;;;7.10;5.05;;;;;;;19.41;45.21;101371.81;667833;29;1442;-79
2022/07/16 03:54:36;;;;;;;8.50;5.20;;;;;;;19.41;44.96;101385.06;667958;29;1920;-81
2022/07/16 03:54:57;;;;;;;9.07;5.30;;;;;;;19.44;44.95;101387.69;667113;29;1356;-80
2022/07/16 04:02:27;;;;;;;6.22;4.32;;;;;;;19.51;44.82;101388.59;668199;29;958;-80
2022/07/16 04:02:52;;;;;;;5.85;4.57;;;;;;;19.45;44.87;101389.50;668960;29;2040;-81
2022/07/16 04:03:15;;;;;;;9.15;5.30;;;;;;;19.43;44.76;101380.63;669403;29;1297;-81
2022/07/16 04:03:38;;;;;;;10.63;5.50;;;;;;;19.49;44.83;101389.47;663807;29;1574;-81
2022/07/16 04:03:59;;;;;;;10.13;4.90;;;;;;;19.45;44.82;101389.50;656812;30;1085;-81
2022/07/16 04:04:20;;;;;;;7.90;4.47;;;;;;;19.42;44.81;101386.81;659363;29;1640;-81
2022/07/16 04:04:42;;;;;;;6.10;4.30;;;;;;;19.46;44.68;101390.34;666351;29;1939;-80
2022/07/16 04:05:04;;;;;;;6.20;4.63;;;;;;;19.47;44.72;101380.66;663922;29;1292;-82
2022/07/16 04:05:26;;;;;;;5.93;4.60;;;;;;;19.47;44.61;101391.25;661566;29;1480;-81
2022/07/16 04:05:48;;;;;;;5.40;4.50;;;;;;;19.43;44.81;101385.94;658999;29;1216;-80
2022/07/16 04:30:18;;;;;;;7.63;3.47;;;;;;;19.68;43.84;101404.47;670647;29;1248;-81
2022/07/16 04:30:41;;;;;;;5.57;3.20;;;;;;;19.68;43.80;101407.13;668516;29;1666;-81
2022/07/16 04:31:03;;;;;;;3.80;3.15;;;;;;;19.68;43.70;101404.47;668084;29;1531;-81
2022/07/16 04:31:26;;;;;;;4.70;3.55;;;;;;;19.66;43.81;101408.88;666248;29;1513;-80
2022/07/16 04:31:47;;;;;;;4.90;3.47;;;;;;;19.73;43.66;101415.97;668976;29;1456;-80
2022/07/16 04:32:08;;;;;;;4.97;3.38;;;;;;;19.72;43.78;101411.53;671683;29;1447;-80
2022/07/16 04:32:30;;;;;;;5.13;2.90;;;;;;;19.72;43.50;101414.19;669057;29;1439;-80
2022/07/16 04:32:51;;;;;;;4.35;3.00;;;;;;;19.73;43.45;101410.66;666611;29;1637;-81
2022/07/16 04:33:13;;;;;;;4.47;3.03;;;;;;;19.75;43.64;101412.41;668601;29;1409;-81
2022/07/16 04:33:35;;;;;;;3.50;3.03;;;;;;;19.75;43.59;101412.41;664891;29;1578;-81
2022/07/16 04:33:56;;;;;;;4.22;2.88;;;;;;;19.75;43.63;101412.41;661944;29;1452;-81
2022/07/16 04:34:17;;;;;;;4.20;2.70;;;;;;;19.75;43.47;101415.97;661993;29;1102;-80
2022/07/16 04:34:39;;;;;;;5.00;2.80;;;;;;;19.75;43.43;101408.03;664525;29;855;-81
2022/07/16 05:18:18;;;;;;;6.68;2.90;;;;;;;20.28;42.62;101443.31;666229;29;1496;-79
2022/07/16 05:18:44;;;;;;;3.60;2.70;;;;;;;20.31;42.79;101433.59;661197;29;1802;-80
2022/07/16 05:19:06;;;;;;;4.75;2.70;;;;;;;20.33;42.65;101437.09;659231;29;1435;-80
2022/07/16 05:19:27;;;;;;;4.50;2.80;;;;;;;20.32;42.61;101424.75;655477;30;1720;-79
2022/07/16 05:19:50;;;;;;;4.93;2.80;;;;;;;20.33;42.63;101430.03;659264;30;1261;-80
2022/07/16 05:20:11;;;;;;;5.93;2.90;;;;;;;20.29;42.75;101428.31;659577;30;1011;-80
2022/07/16 05:20:33;;;;;;;7.13;3.10;;;;;;;20.36;42.73;101442.41;665204;29;1496;-80
2022/07/16 05:20:54;;;;;;;8.15;3.40;;;;;;;20.34;42.70;101434.47;659293;30;1149;-80
2022/07/16 05:21:16;;;;;;;6.03;3.15;;;;;;;20.38;42.64;101437.97;657151;30;1022;-80
2022/07/16 05:21:37;;;;;;;4.15;2.83;;;;;;;20.28;42.70;101435.34;657429;30;1479;-80
2022/07/16 05:21:58;;;;;;;2.88;2.55;;;;;;;20.33;42.89;101437.09;664968;29;1241;-81
2022/07/16 05:22:20;;;;;;;2.90;2.60;;;;;;;20.34;42.65;101444.19;662218;29;1390;-80
2022/07/16 05:22:41;;;;;;;3.00;2.70;;;;;;;20.33;42.82;101431.81;659976;29;1814;-80
2022/07/16 05:23:03;;;;;;;3.00;2.80;;;;;;;20.34;42.91;101434.47;657349;30;1214;-80
2022/07/16 05:23:25;;;;;;;3.47;2.85;;;;;;;20.35;42.74;101430.06;660735;29;1527;-81
2022/07/16 05:23:48;;;;;;;3.88;3.03;;;;;;;20.37;42.79;101428.28;671062;29;1393;-80
2022/07/16 05:24:10;;;;;;;4.05;3.03;;;;;;;20.35;42.93;101441.53;666206;29;1295;-80
2022/07/16 05:24:32;;;;;;;4.78;2.97;;;;;;;20.41;42.89;101435.34;666885;29;1703;-80
2022/07/16 05:24:54;;;;;;;5.68;3.05;;;;;;;20.40;42.83;101436.22;664724;29;1143;-79
2022/07/16 05:25:16;;;;;;;5.20;3.17;;;;;;;20.41;42.79;101435.34;662465;29;994;-80
2022/07/16 05:25:38;;;;;;;3.53;3.10;;;;;;;20.46;42.72;101437.97;664834;29;1679;-80
2022/07/16 05:26:00;;;;;;;2.80;2.60;;;;;;;20.47;42.81;101437.94;664550;29;1296;-81
2022/07/16 05:26:22;;;;;;;3.08;2.60;;;;;;;20.43;42.87;101438.88;668755;29;1252;-81
2022/07/16 05:26:44;;;;;;;5.40;2.90;;;;;;;20.41;42.81;101436.22;671842;29;1633;-79
2022/07/16 05:27:05;;;;;;;6.00;3.00;;;;;;;20.47;42.94;101442.41;667514;29;1243;-81
2022/07/16 05:27:26;;;;;;;4.60;2.90;;;;;;;20.46;42.81;101440.63;665193;29;1776;-79
2022/07/16 05:27:48;;;;;;;3.35;2.53;;;;;;;20.44;42.91;101432.66;667503;29;1260;-80
2022/07/16 05:28:10;;;;;;;4.40;2.75;;;;;;;20.45;42.98;101430.88;667321;29;1374;-79
2022/07/16 05:28:32;;;;;;;4.60;2.63;;;;;;;20.44;43.00;101437.97;666444;29;1927;-79
2022/07/16 05:28:54;;;;;;;3.90;2.70;;;;;;;20.46;42.97;101433.53;669087;29;1154;-79
2022/07/16 05:29:16;;;;;;;4.22;2.55;;;;;;;20.46;43.00;101438.84;662859;29;1221;-79
2022/07/16 05:29:40;;;;;;;4.28;2.80;;;;;;;20.49;42.96;101432.66;666130;29;1772;-79
2022/07/16 05:30:04;;;;;;;4.82;3.15;;;;;;;20.50;42.89;101443.28;662269;29;1432;-79
2022/07/16 05:30:27;;;;;;;4.10;3.40;;;;;;;20.49;43.05;101437.97;664278;29;1591;-80
2022/07/16 05:31:03;;;;;;;3.72;3.10;;;;;;;20.47;43.09;101442.41;663406;29;1088;-81
2022/07/16 05:31:25;;;;;;;3.30;2.80;;;;;;;20.48;43.08;101434.41;667089;29;1145;-80
2022/07/16 05:31:46;;;;;;;4.47;3.22;;;;;;;20.47;43.03;101437.94;668106;29;1080;-80
2022/07/16 05:32:09;;;;;;;4.53;3.33;;;;;;;20.50;43.03;101440.63;667252;29;1524;-81
2022/07/16 05:32:31;;;;;;;6.50;3.30;;;;;;;20.50;42.94;101440.63;666336;29;1275;-80
2022/07/16 05:32:52;;;;;;;5.90;2.92;;;;;;;20.47;43.00;101440.59;664845;29;1278;-80
2022/07/16 05:33:14;;;;;;;5.25;2.80;;;;;;;20.43;43.12;101433.56;662060;29;1161;-81
2022/07/16 05:33:35;;;;;;;3.92;2.97;;;;;;;20.47;42.97;101437.94;664741;29;1552;-80
2022/07/16 05:33:57;;;;;;;3.40;3.10;;;;;;;20.50;43.13;101443.28;664064;29;1454;-79
2022/07/16 05:34:18;;;;;;;4.13;3.10;;;;;;;20.47;43.19;101437.94;667058;29;1400;-80
2022/07/16 05:34:38;;;;;;;4.07;2.85;;;;;;;20.53;43.05;101439.72;667428;29;1998;-79
2022/07/16 05:34:59;;;;;;;4.30;3.00;;;;;;;20.50;43.21;101437.97;666509;29;1134;-79
2022/07/16 05:35:21;;;;;;;3.58;3.05;;;;;;;20.51;43.16;101430.88;667391;29;1156;-80
2022/07/16 05:35:43;;;;;;;4.45;3.20;;;;;;;20.52;43.22;101429.97;664814;29;1272;-80
2022/07/16 05:36:05;;;;;;;3.95;3.08;;;;;;;20.52;43.40;101443.25;667292;29;1923;-80
2022/07/16 05:36:27;;;;;;;4.20;3.00;;;;;;;20.55;43.36;101444.13;666594;29;1577;-79
2022/07/16 05:36:49;;;;;;;4.97;3.08;;;;;;;20.53;43.39;101440.59;668370;29;1109;-80
2022/07/16 05:37:11;;;;;;;6.60;3.40;;;;;;;20.59;43.50;101445.00;669310;29;1329;-78
2022/07/16 05:37:33;;;;;;;6.95;3.63;;;;;;;20.58;43.26;101442.38;668269;29;1747;-79
2022/07/16 05:37:54;;;;;;;5.25;3.40;;;;;;;20.53;43.39;101443.25;666750;29;1251;-81
2022/07/16 05:38:16;;;;;;;4.00;3.20;;;;;;;20.61;43.39;101445.91;667397;29;982;-80
2022/07/16 05:38:38;;;;;;;4.60;3.20;;;;;;;20.54;43.32;101442.34;662634;29;1201;-80
2022/07/16 05:39:01;;;;;;;5.18;3.28;;;;;;;20.54;43.38;101446.78;664384;29;1197;-78
2022/07/16 05:39:22;;;;;;;4.85;3.08;;;;;;;20.53;43.76;101435.28;663557;29;1132;-80
2022/07/16 05:39:43;;;;;;;4.40;3.20;;;;;;;20.54;43.71;101447.66;661459;29;1061;-79
2022/07/16 05:40:05;;;;;;;4.10;3.28;;;;;;;20.53;43.70;101443.25;667153;29;1143;-80
2022/07/16 05:40:27;;;;;;;4.20;3.50;;;;;;;20.57;43.68;101446.78;664228;29;1575;-79
2022/07/16 05:40:48;;;;;;;4.30;3.50;;;;;;;20.55;43.91;101441.47;666836;29;1407;-80
2022/07/16 05:41:10;;;;;;;4.35;3.50;;;;;;;20.59;43.79;101449.44;669772;29;1125;-80
2022/07/16 05:41:32;;;;;;;4.25;3.38;;;;;;;20.62;43.87;101446.75;666205;29;1228;-80
2022/07/16 05:41:55;;;;;;;4.78;3.38;;;;;;;20.65;43.48;101449.41;666596;29;1451;-80
2022/07/16 05:42:16;;;;;;;5.15;3.60;;;;;;;20.67;43.75;101453.81;666783;29;1061;-80
2022/07/16 05:42:38;;;;;;;4.82;3.70;;;;;;;20.68;43.61;101454.69;669900;29;2053;-81
2022/07/16 05:42:59;;;;;;;4.50;3.53;;;;;;;20.62;43.81;101442.34;672456;29;1087;-81
2022/07/16 05:43:20;;;;;;;4.70;3.45;;;;;;;20.66;43.74;101452.03;672569;29;1183;-80
2022/07/16 05:43:42;;;;;;;4.40;3.30;;;;;;;20.63;43.81;101451.16;666932;29;1319;-79
2022/07/16 05:44:03;;;;;;;3.92;3.20;;;;;;;20.65;43.80;101450.28;662146;29;1286;-81
2022/07/16 05:44:25;;;;;;;4.70;3.20;;;;;;;20.69;43.90;101448.50;662260;29;1247;-80
2022/07/16 05:44:47;;;;;;;5.05;3.38;;;;;;;20.69;43.63;101446.75;663641;29;2701;-79
2022/07/16 05:45:09;;;;;;;5.47;3.42;;;;;;;20.69;43.91;101451.16;666619;29;2951;-80
2022/07/16 05:45:31;;;;;;;6.38;3.50;;;;;;;20.74;44.13;101453.81;667190;29;1865;-79
2022/07/16 05:45:52;;;;;;;6.70;3.40;;;;;;;20.73;43.90;101455.59;671509;29;1263;-80
2022/07/16 05:46:14;;;;;;;8.18;3.30;;;;;;;20.74;44.16;101451.16;672279;29;1078;-80
2022/07/16 05:46:36;;;;;;;7.88;3.30;;;;;;;20.75;44.09;101448.50;665979;29;1475;-81
2022/07/16 05:46:57;;;;;;;6.20;3.20;;;;;;;20.77;43.92;101452.03;666494;29;2376;-79
2022/07/16 05:47:20;;;;;;;4.18;3.20;;;;;;;20.77;44.35;101454.69;664842;29;1400;-80
2022/07/16 05:47:42;;;;;;;5.00;3.60;;;;;;;20.80;44.16;101456.44;661514;29;1561;-80
2022/07/16 05:48:06;;;;;;;5.10;3.58;;;;;;;20.84;44.15;101466.16;667694;29;2450;-79
2022/07/16 05:48:30;;;;;;;4.50;3.58;;;;;;;20.86;44.02;101459.09;667008;29;1471;-80
2022/07/16 05:48:52;;;;;;;4.45;3.70;;;;;;;20.78;43.98;101459.09;670544;29;1318;-79
2022/07/16 05:49:13;;;;;;;4.57;3.78;;;;;;;20.76;44.17;101446.72;672009;29;2503;-80
2022/07/16 05:49:35;;;;;;;5.25;3.70;;;;;;;20.78;44.18;101453.78;671266;29;1618;-79
2022/07/16 05:50:46;;;;;;;5.10;3.80;;;;;;;20.80;44.27;101460.00;671073;29;1140;-81
2022/07/16 05:51:08;;;;;;;4.30;3.55;;;;;;;20.71;44.61;101465.31;668572;29;2564;-80
2022/07/16 05:51:30;;;;;;;6.72;3.88;;;;;;;20.66;44.63;101464.44;672090;29;2021;-80
2022/07/16 05:51:53;;;;;;;6.65;3.83;;;;;;;20.65;44.60;101465.31;667616;29;1279;-80
2022/07/16 05:52:14;;;;;;;7.18;3.92;;;;;;;20.63;44.72;101467.97;666311;29;1260;-81
2022/07/16 05:52:37;;;;;;;4.22;3.83;;;;;;;20.58;44.76;101456.50;664250;29;1678;-79
2022/07/16 05:53:00;;;;;;;4.43;3.75;;;;;;;20.55;44.91;101454.72;664054;29;1120;-80
2022/07/16 05:53:23;;;;;;;5.15;3.90;;;;;;;20.59;44.90;101460.03;667407;29;2080;-80
2022/07/16 05:53:46;;;;;;;5.90;3.90;;;;;;;20.61;44.97;101460.91;664188;29;2462;-79
2022/07/16 05:54:09;;;;;;;5.72;3.60;;;;;;;20.62;45.00;101465.31;661058;29;1316;-79
2022/07/16 05:54:33;;;;;;;4.80;3.50;;;;;;;20.65;44.89;101454.72;666682;29;1484;-79
2022/07/16 05:54:55;;;;;;;5.70;3.40;;;;;;;20.72;44.88;101468.88;672672;29;2559;-80
2022/07/16 05:55:18;;;;;;;5.35;3.65;;;;;;;20.69;44.91;101461.75;671323;29;1620;-79
2022/07/16 05:55:42;;;;;;;4.45;3.72;;;;;;;20.69;44.80;101456.47;671738;29;1723;-80
2022/07/16 05:56:05;;;;;;;4.00;3.60;;;;;;;20.71;44.89;101460.00;664310;29;2493;-80
2022/07/16 05:56:27;;;;;;;3.83;3.53;;;;;;;20.65;45.06;101460.88;666230;29;1236;-80
2022/07/16 05:56:49;;;;;;;4.60;3.55;;;;;;;20.65;45.04;101460.88;664101;29;2329;-80
2022/07/16 05:57:12;;;;;;;4.70;3.70;;;;;;;20.69;45.13;101459.09;664273;29;1140;-80
2022/07/16 05:57:36;;;;;;;6.20;3.78;;;;;;;20.74;44.80;101464.44;664675;29;1873;-79
2022/07/16 05:57:58;;;;;;;5.13;3.65;;;;;;;20.69;45.11;101467.06;667187;29;1199;-81
2022/07/16 05:58:22;;;;;;;5.63;3.63;;;;;;;20.72;45.21;101464.41;663939;29;1293;-80
2022/07/16 05:58:45;;;;;;;4.65;3.70;;;;;;;20.75;45.07;101467.09;666200;29;1683;-80
2022/07/16 05:59:09;;;;;;;4.40;3.50;;;;;;;20.81;45.06;101467.06;664583;29;1178;-80
2022/07/16 05:59:32;;;;;;;4.63;3.40;;;;;;;20.80;44.95;101465.31;664137;29;1693;-79
2022/07/16 06:01:52;;;;;;;5.43;3.42;;;;;;;20.94;45.02;101467.00;670025;29;1540;-80
2022/07/16 06:02:15;;;;;;;4.07;3.58;;;;;;;20.94;45.46;101461.69;669016;29;2690;-79
2022/07/16 06:02:37;;;;;;;5.35;3.85;;;;;;;20.95;45.28;101471.41;664016;29;1607;-80
2022/07/16 06:02:59;;;;;;;5.30;3.70;;;;;;;20.93;45.17;101460.81;663205;29;1657;-80
2022/07/16 06:03:21;;;;;;;4.22;3.45;;;;;;;20.96;45.20;101466.09;663095;29;2651;-80
2022/07/16 06:03:43;;;;;;;3.80;3.35;;;;;;;21.01;45.16;101465.22;667170;29;1857;-79
2022/07/16 06:04:05;;;;;;;3.60;3.30;;;;;;;21.01;45.07;101468.75;668924;29;1388;-80
2022/07/16 06:04:27;;;;;;;4.20;3.40;;;;;;;21.04;45.16;101475.81;667026;29;1487;-79
2022/07/16 06:04:49;;;;;;;4.05;3.40;;;;;;;21.08;45.05;101473.13;668127;29;1778;-79
2022/07/16 06:05:11;;;;;;;4.43;3.50;;;;;;;21.10;45.15;101470.47;662848;29;1146;-80
2022/07/16 06:05:35;;;;;;;3.80;3.40;;;;;;;21.16;45.10;101473.09;664201;29;1313;-80
2022/07/16 06:05:57;;;;;;;3.80;3.30;;;;;;;21.14;44.92;101463.38;662435;29;1025;-79
2022/07/16 06:06:19;;;;;;;4.78;3.30;;;;;;;21.19;45.12;101472.19;665235;29;1405;-80
2022/07/16 06:06:41;;;;;;;4.72;3.38;;;;;;;21.21;44.68;101470.44;667461;29;1248;-79
2022/07/16 06:07:03;;;;;;;5.53;3.60;;;;;;;21.23;45.06;101468.63;669740;29;1158;-80
2022/07/16 06:07:25;;;;;;;4.85;3.60;;;;;;;21.26;44.77;101473.91;671469;29;2496;-80
2022/07/16 06:07:50;;;;;;;5.22;3.70;;;;;;;21.23;44.80;101476.59;666202;29;1159;-80
2022/07/16 06:08:11;;;;;;;6.90;3.65;;;;;;;21.22;45.08;101473.06;667607;29;1041;-81
2022/07/16 06:08:34;;;;;;;6.30;3.60;;;;;;;21.28;44.76;101466.84;664878;29;1745;-80
2022/07/16 06:08:56;;;;;;;4.97;3.40;;;;;;;21.27;44.85;101470.38;667066;29;1230;-79
2022/07/16 06:09:17;;;;;;;3.92;3.53;;;;;;;21.25;44.68;101469.50;664827;29;1617;-80
2022/07/16 06:09:42;;;;;;;4.43;3.67;;;;;;;21.25;44.72;101474.81;666448;29;1902;-80
2022/07/16 06:10:06;;;;;;;5.13;3.78;;;;;;;21.27;44.75;101475.69;665169;29;1050;-80
2022/07/16 06:10:28;;;;;;;5.25;3.53;;;;;;;21.30;44.77;101473.03;662710;29;1899;-79
2022/07/16 06:10:50;;;;;;;5.82;3.47;;;;;;;21.30;44.87;101481.00;666858;29;1154;-80
2022/07/16 06:11:12;;;;;;;6.03;3.45;;;;;;;21.31;44.96;101480.09;665364;29;1040;-79
2022/07/16 06:11:35;;;;;;;7.10;3.50;;;;;;;21.35;44.88;101473.84;665764;29;1708;-80
2022/07/16 06:11:57;;;;;;;6.07;3.65;;;;;;;21.34;44.72;101464.13;667987;29;2453;-81
2022/07/16 06:12:19;;;;;;;6.53;3.50;;;;;;;21.41;44.74;101482.69;671449;29;2774;-81
2022/07/16 06:12:42;;;;;;;5.93;3.60;;;;;;;21.43;44.62;101476.47;669241;29;2576;-80
2022/07/16 06:13:03;;;;;;;4.60;3.40;;;;;;;21.47;44.65;101480.00;670886;29;2455;-81
2022/07/16 06:13:26;;;;;;;3.42;3.13;;;;;;;21.50;44.57;101478.25;673389;29;2735;-81
2022/07/16 06:13:54;;;;;;;3.65;3.10;;;;;;;21.53;44.46;101477.34;671413;29;1256;-79
2022/07/16 06:14:17;;;;;;;4.18;3.10;;;;;;;21.53;44.45;101472.03;670710;29;1076;-78
2022/07/16 06:14:46;;;;;;;4.60;3.42;;;;;;;21.55;44.60;101475.56;666882;29;1711;-80
2022/07/16 06:15:10;;;;;;;4.65;3.50;;;;;;;21.57;44.75;101478.22;667405;29;2581;-80
2022/07/16 06:15:34;;;;;;;5.03;3.47;;;;;;;21.58;44.46;101479.97;667486;29;2706;-79
2022/07/16 06:15:56;;;;;;;4.22;3.50;;;;;;;21.61;44.65;101483.47;666736;29;2569;-81
2022/07/16 06:16:19;;;;;;;3.65;3.20;;;;;;;21.63;44.50;101472.84;664960;29;2523;-81
2022/07/16 06:16:54;;;;;;;4.57;3.22;;;;;;;21.63;44.30;101473.72;669824;29;1760;-79
2022/07/16 06:17:18;;;;;;;6.13;3.60;;;;;;;21.66;44.29;101469.28;669618;29;968;-79
2022/07/16 06:17:40;;;;;;;4.47;3.15;;;;;;;21.63;44.50;101479.03;665741;29;2545;-80
2022/07/16 06:18:04;;;;;;;3.90;2.90;;;;;;;21.64;44.57;101474.63;669356;29;1305;-80
2022/07/16 06:18:26;;;;;;;3.38;2.75;;;;;;;21.65;44.50;101473.72;668559;29;1024;-79
2022/07/16 06:18:51;;;;;;;4.40;3.17;;;;;;;21.68;44.38;101481.66;666871;29;2594;-79
2022/07/16 06:19:16;;;;;;;5.50;3.50;;;;;;;21.69;44.30;101483.41;665616;29;2611;-79
2022/07/16 06:19:45;;;;;;;4.82;3.40;;;;;;;21.72;44.42;101474.53;664422;29;2379;-79
2022/07/16 06:20:09;;;;;;;3.58;3.08;;;;;;;21.71;44.18;101483.41;666568;29;2532;-79
2022/07/16 06:20:31;;;;;;;3.30;3.00;;;;;;;21.71;44.31;101484.28;669197;29;1786;-80
2022/07/16 06:20:55;;;;;;;3.90;3.50;;;;;;;21.71;44.18;101483.41;667096;29;1710;-80
2022/07/16 06:21:18;;;;;;;4.05;3.60;;;;;;;21.70;43.96;101484.31;666375;29;1122;-79
2022/07/16 06:21:40;;;;;;;6.20;3.40;;;;;;;21.68;44.22;101488.75;667927;29;1588;-80
2022/07/16 06:22:03;;;;;;;6.00;3.10;;;;;;;21.70;44.07;101489.63;664910;29;1307;-79
2022/07/16 06:22:28;;;;;;;6.05;3.38;;;;;;;21.69;44.12;101487.88;669344;29;1542;-80
2022/07/16 06:22:56;;;;;;;5.00;3.50;;;;;;;21.68;44.09;101491.41;660892;29;1555;-80
2022/07/16 06:23:21;;;;;;;5.60;3.28;;;;;;;21.66;44.11;101494.06;663667;29;1712;-80
2022/07/16 06:23:45;;;;;;;4.45;3.00;;;;;;;21.66;44.12;101488.75;664041;29;1830;-80
2022/07/16 06:24:06;;;;;;;4.35;3.08;;;;;;;21.61;44.21;101491.47;671035;29;1216;-79
2022/07/16 06:24:30;;;;;;;4.30;3.22;;;;;;;21.63;44.27;101491.41;669599;29;1426;-79
2022/07/16 06:24:55;;;;;;;3.50;3.13;;;;;;;21.61;44.24;101486.13;674263;29;1567;-80
2022/07/16 06:25:19;;;;;;;3.45;3.05;;;;;;;21.64;44.48;101491.41;669703;29;2693;-80
2022/07/16 06:25:44;;;;;;;3.20;2.90;;;;;;;21.65;44.25;101497.63;662001;29;1558;-80
2022/07/16 06:26:08;;;;;;;3.10;2.80;;;;;;;21.68;44.52;101488.75;664717;29;2551;-82
2022/07/16 06:26:33;;;;;;;3.30;2.80;;;;;;;21.72;44.30;101499.34;667058;29;1499;-81
2022/07/16 06:27:05;;;;;;;3.30;2.75;;;;;;;21.71;44.30;101496.69;663255;29;1260;-81
2022/07/16 06:27:28;;;;;;;3.72;2.67;;;;;;;21.78;44.22;101498.41;666861;29;1678;-79
2022/07/16 06:27:51;;;;;;;4.50;2.90;;;;;;;21.77;44.29;101491.34;670335;29;2420;-79
2022/07/16 06:28:15;;;;;;;3.40;2.80;;;;;;;21.79;44.16;101489.53;674900;29;1214;-80
2022/07/16 06:28:39;;;;;;;2.90;2.70;;;;;;;21.83;44.27;101496.59;668616;29;1908;-79
2022/07/16 06:29:02;;;;;;;3.58;2.97;;;;;;;21.85;44.13;101494.81;669081;29;1111;-82
2022/07/16 06:29:24;;;;;;;4.60;3.10;;;;;;;21.88;44.32;101499.22;666302;29;1364;-80
2022/07/16 06:29:47;;;;;;;4.55;3.00;;;;;;;21.88;44.27;101499.22;664669;29;2007;-80
2022/07/16 06:30:16;;;;;;;3.22;2.90;;;;;;;21.89;44.28;101498.34;665282;29;2636;-79
2022/07/16 06:30:37;;;;;;;3.88;2.80;;;;;;;21.92;44.15;101495.66;670757;29;1993;-80
2022/07/16 06:31:00;;;;;;;3.65;2.60;;;;;;;21.97;44.24;101503.56;667518;29;1809;-80
2022/07/16 06:31:22;;;;;;;3.63;2.67;;;;;;;21.99;44.04;101499.13;667334;29;1146;-79
2022/07/16 06:31:46;;;;;;;3.65;2.78;;;;;;;22.02;44.14;101507.94;670542;29;1895;-80
2022/07/16 06:32:09;;;;;;;3.13;2.83;;;;;;;22.00;43.96;101499.13;669444;29;1322;-80
2022/07/16 06:32:33;;;;;;;3.03;2.72;;;;;;;22.00;44.23;101499.13;673720;29;1529;-80
2022/07/16 06:32:56;;;;;;;3.05;2.58;;;;;;;22.04;43.91;101507.94;671615;29;2551;-80
2022/07/16 06:33:18;;;;;;;2.92;2.40;;;;;;;22.05;44.00;101504.38;665998;29;1887;-79
2022/07/16 06:33:41;;;;;;;3.25;2.40;;;;;;;22.04;43.68;101492.00;664926;29;1760;-80
2022/07/16 06:34:04;;;;;;;4.47;2.45;;;;;;;22.06;43.60;101500.84;663415;29;1063;-80
2022/07/16 06:34:27;;;;;;;4.40;2.40;;;;;;;22.01;43.67;101505.34;666543;29;1688;-80
2022/07/16 06:34:49;;;;;;;3.42;2.20;;;;;;;22.00;43.66;101503.56;664741;29;1810;-80
2022/07/16 06:35:13;;;;;;;4.13;2.20;;;;;;;21.97;43.93;101500.91;666411;29;1154;-79
2022/07/16 06:35:38;;;;;;;4.95;2.20;;;;;;;21.92;43.75;101506.28;671303;29;1323;-80
2022/07/16 06:36:05;;;;;;;4.50;2.40;;;;;;;21.87;43.97;101508.97;671853;29;2478;-80
2022/07/16 06:36:27;;;;;;;3.53;2.47;;;;;;;21.81;43.92;101505.50;667145;29;2581;-79
2022/07/16 06:36:49;;;;;;;3.75;2.50;;;;;;;21.78;44.21;101506.38;666698;29;1436;-80
2022/07/16 06:37:11;;;;;;;2.60;2.40;;;;;;;21.79;44.28;101500.19;666154;29;2442;-80
2022/07/16 06:37:34;;;;;;;2.50;2.30;;;;;;;21.80;44.05;101504.59;669427;29;1514;-79
2022/07/16 06:37:59;;;;;;;2.80;2.30;;;;;;;21.78;44.45;101501.94;666735;29;1225;-80
2022/07/16 06:38:23;;;;;;;2.80;2.20;;;;;;;21.83;44.35;101512.53;664579;29;1133;-79
2022/07/16 06:38:47;;;;;;;2.30;2.10;;;;;;;21.88;44.26;101513.38;664544;29;2022;-80
2022/07/16 06:39:10;;;;;;;2.50;2.03;;;;;;;21.86;44.13;101508.97;665786;29;1208;-79
2022/07/16 06:39:32;;;;;;;2.42;1.90;;;;;;;21.85;44.24;101505.44;667385;29;1612;-80
2022/07/16 06:39:53;;;;;;;3.85;1.90;;;;;;;21.88;44.23;101517.84;665864;29;1888;-80
2022/07/16 06:40:15;;;;;;;4.13;1.90;;;;;;;21.86;43.94;101501.91;667402;29;1145;-80
2022/07/16 06:40:41;;;;;;;5.43;2.00;;;;;;;21.92;44.23;101511.59;666730;29;1554;-80
2022/07/16 06:41:30;;;;;;;4.95;2.00;;;;;;;21.94;44.30;101514.25;664643;29;1204;-80
2022/07/16 06:41:53;;;;;;;4.13;2.08;;;;;;;21.92;44.25;101508.94;666108;29;1600;-80
2022/07/16 06:42:16;;;;;;;2.83;2.08;;;;;;;21.95;44.28;101511.56;668242;29;1557;-80
2022/07/16 06:42:38;;;;;;;2.42;1.88;;;;;;;21.95;44.27;101510.69;670689;29;1322;-80
2022/07/16 06:43:03;;;;;;;1.77;1.60;;;;;;;22.00;44.23;101517.72;664784;29;1273;-81
2022/07/16 06:43:25;;;;;;;2.60;1.77;;;;;;;21.98;44.53;101510.66;664408;29;1909;-81
2022/07/16 06:43:47;;;;;;;2.67;1.83;;;;;;;22.00;44.35;101506.22;662438;29;1735;-80
2022/07/16 06:44:09;;;;;;;2.85;2.00;;;;;;;22.01;44.15;101516.81;665234;29;1241;-79
2022/07/16 06:44:32;;;;;;;2.22;1.90;;;;;;;22.04;44.35;101513.25;670910;29;2617;-80
2022/07/16 06:44:54;;;;;;;1.75;1.65;;;;;;;22.08;44.13;101517.69;671033;29;1729;-79
2022/07/16 06:51:07;;;;;;;2.80;1.90;;;;;;;21.86;44.97;101528.47;674122;29;2395;-80
2022/07/16 06:51:36;;;;;;;2.30;1.77;;;;;;;21.93;44.82;101526.63;670296;29;2732;-79
2022/07/16 06:52:00;;;;;;;2.85;1.83;;;;;;;21.91;44.76;101520.47;669544;29;1201;-80
2022/07/16 06:52:23;;;;;;;3.22;2.00;;;;;;;21.93;44.75;101523.13;669113;29;1336;-80
2022/07/16 06:52:46;;;;;;;3.05;2.00;;;;;;;21.90;44.55;101521.34;665348;29;1251;-79
2022/07/16 06:53:09;;;;;;;2.60;1.95;;;;;;;21.94;44.54;101533.72;666047;29;1122;-80
2022/07/16 06:53:36;;;;;;;2.38;1.70;;;;;;;21.97;44.40;101528.38;666999;29;1224;-80
2022/07/16 06:54:00;;;;;;;1.95;1.50;;;;;;;21.93;44.70;101518.66;666814;29;2432;-80
2022/07/16 06:54:33;;;;;;;2.17;1.55;;;;;;;22.00;44.73;101524.84;669803;29;1278;-80
2022/07/16 06:54:56;;;;;;;2.15;1.70;;;;;;;22.07;44.52;101528.31;664462;29;1417;-80
2022/07/16 06:55:20;;;;;;;2.20;1.73;;;;;;;22.07;44.80;101526.50;662084;29;1232;-81
2022/07/16 06:55:44;;;;;;;2.22;1.70;;;;;;;22.15;44.67;101532.69;664798;29;2453;-79
2022/07/16 06:56:06;;;;;;;1.95;1.60;;;;;;;22.13;44.42;101531.78;665431;29;1907;-81
2022/07/16 06:56:34;;;;;;;2.40;1.70;;;;;;;22.17;44.54;101528.22;668814;29;1483;-79
2022/07/16 06:56:57;;;;;;;2.47;1.60;;;;;;;22.18;44.40;101527.31;668249;29;1353;-79
2022/07/16 06:57:21;;;;;;;1.85;1.63;;;;;;;22.26;44.30;101529.06;666353;29;2042;-79
2022/07/16 06:57:46;;;;;;;1.80;1.70;;;;;;;22.31;44.31;101528.13;672107;29;964;-81
2022/07/16 06:58:09;;;;;;;2.40;1.70;;;;;;;22.31;44.19;101532.53;663732;29;1233;-81
2022/07/16 06:58:33;;;;;;;2.50;1.58;;;;;;;22.38;44.17;101534.25;666874;29;1346;-81
2022/07/16 06:58:56;;;;;;;2.15;1.50;;;;;;;22.37;44.41;101536.94;668597;29;2547;-80
2022/07/16 06:59:19;;;;;;;3.45;1.63;;;;;;;22.40;44.45;101535.16;669837;29;922;-80
2022/07/16 06:59:42;;;;;;;5.35;1.90;;;;;;;22.38;43.90;101536.91;666028;29;1000;-81
2022/07/16 07:00:07;;;;;;;5.63;1.90;;;;;;;22.35;43.82;101525.44;668437;29;1327;-80
2022/07/16 07:00:31;;;;;;;3.50;1.75;;;;;;;22.33;43.95;101531.63;670283;29;1710;-81
2022/07/16 07:00:56;;;;;;;2.58;1.77;;;;;;;22.35;44.21;101536.94;667092;29;1290;-81
2022/07/16 07:01:20;;;;;;;2.17;1.80;;;;;;;22.38;44.16;101536.91;670419;29;939;-81
2022/07/16 07:09:07;;;;;;;2.20;1.80;;;;;;;22.12;43.55;101548.63;670824;29;1403;-81
2022/07/16 07:09:31;;;;;;;2.10;1.80;;;;;;;22.12;43.55;101545.13;665988;29;1521;-80
2022/07/16 07:09:53;;;;;;;1.75;1.63;;;;;;;22.18;43.48;101545.94;665047;29;1451;-82
2022/07/16 07:10:16;;;;;;;3.20;2.00;;;;;;;22.20;43.50;101553.91;663304;29;1521;-81
2022/07/16 07:10:39;;;;;;;2.88;2.00;;;;;;;22.17;43.57;101551.25;669437;29;1229;-81
2022/07/16 07:11:02;;;;;;;1.92;1.80;;;;;;;22.18;43.66;101551.25;671683;29;2423;-81
2022/07/16 07:11:25;;;;;;;1.60;1.50;;;;;;;22.09;43.65;101542.47;663540;29;1227;-80
2022/07/16 07:11:48;;;;;;;1.80;1.60;;;;;;;22.08;43.50;101546.00;666504;29;2446;-80
2022/07/16 07:12:10;;;;;;;2.03;1.60;;;;;;;22.06;43.66;101546.00;665223;29;1351;-81
2022/07/16 07:12:34;;;;;;;2.17;1.60;;;;;;;22.04;43.41;101545.16;668600;29;1877;-81